sensor_id;sensor_type;location;lat;lon;timestamp;P1;durP1;ratioP1;P2;durP2;ratioP2
64242;SDS011;50573;51.512;5.386;2023-02-15T00:04:26;114.25;;;50.60;;
64242;SDS011;50573;51.512;5.386;2023-02-15T00:14:49;102.63;;;49.55;;
64242;SDS011;50573;51.512;5.386;2023-02-15T00:24:52;101.32;;;49.58;;
64242;SDS011;50573;51.512;5.386;2023-02-15T00:34:56;105.85;;;48.03;;
64242;SDS011;50573;51.512;5.386;2023-02-15T00:44:59;94.80;;;44.43;;
64242;SDS011;50573;51.512;5.386;2023-02-15T00:55:04;95.20;;;43.22;;
64242;SDS011;50573;51.512;5.386;2023-02-15T01:05:08;106.47;;;50.15;;
64242;SDS011;50573;51.512;5.386;2023-02-15T01:15:12;104.13;;;48.13;;
64242;SDS011;50573;51.512;5.386;2023-02-15T01:25:15;102.05;;;48.30;;
64242;SDS011;50573;51.512;5.386;2023-02-15T01:35:20;96.90;;;42.95;;
64242;SDS011;50573;51.512;5.386;2023-02-15T01:45:24;91.63;;;40.88;;
64242;SDS011;50573;51.512;5.386;2023-02-15T01:55:30;85.95;;;42.13;;
64242;SDS011;50573;51.512;5.386;2023-02-15T02:05:37;77.28;;;39.55;;
64242;SDS011;50573;51.512;5.386;2023-02-15T02:15:44;94.47;;;41.27;;
64242;SDS011;50573;51.512;5.386;2023-02-15T02:36:44;107.57;;;48.80;;
64242;SDS011;50573;51.512;5.386;2023-02-15T02:46:56;99.72;;;45.45;;
64242;SDS011;50573;51.512;5.386;2023-02-15T02:57:05;86.35;;;40.97;;
64242;SDS011;50573;51.512;5.386;2023-02-15T03:07:11;90.85;;;44.22;;
64242;SDS011;50573;51.512;5.386;2023-02-15T03:17:26;87.20;;;40.50;;
64242;SDS011;50573;51.512;5.386;2023-02-15T03:27:35;87.10;;;41.33;;
64242;SDS011;50573;51.512;5.386;2023-02-15T03:37:46;118.05;;;53.70;;
64242;SDS011;50573;51.512;5.386;2023-02-15T03:47:52;101.32;;;46.80;;
64242;SDS011;50573;51.512;5.386;2023-02-15T03:57:59;110.43;;;48.10;;
64242;SDS011;50573;51.512;5.386;2023-02-15T04:08:22;87.67;;;42.70;;
64242;SDS011;50573;51.512;5.386;2023-02-15T04:18:47;100.40;;;45.27;;
64242;SDS011;50573;51.512;5.386;2023-02-15T04:29:08;91.93;;;43.78;;
64242;SDS011;50573;51.512;5.386;2023-02-15T04:39:13;106.97;;;48.15;;
64242;SDS011;50573;51.512;5.386;2023-02-15T04:49:17;106.82;;;44.78;;
64242;SDS011;50573;51.512;5.386;2023-02-15T04:59:21;124.28;;;49.92;;
64242;SDS011;50573;51.512;5.386;2023-02-15T05:09:24;129.50;;;53.33;;
64242;SDS011;50573;51.512;5.386;2023-02-15T05:19:29;119.43;;;50.53;;
64242;SDS011;50573;51.512;5.386;2023-02-15T05:29:32;117.85;;;52.08;;
64242;SDS011;50573;51.512;5.386;2023-02-15T05:39:36;110.43;;;50.70;;
64242;SDS011;50573;51.512;5.386;2023-02-15T05:49:39;123.25;;;52.00;;
64242;SDS011;50573;51.512;5.386;2023-02-15T05:59:43;104.07;;;47.90;;
64242;SDS011;50573;51.512;5.386;2023-02-15T06:09:46;108.20;;;48.85;;
64242;SDS011;50573;51.512;5.386;2023-02-15T06:19:51;113.57;;;49.40;;
64242;SDS011;50573;51.512;5.386;2023-02-15T06:29:54;123.30;;;51.15;;
64242;SDS011;50573;51.512;5.386;2023-02-15T06:39:58;93.25;;;43.83;;
64242;SDS011;50573;51.512;5.386;2023-02-15T06:50:04;116.35;;;53.42;;
64242;SDS011;50573;51.512;5.386;2023-02-15T07:00:10;120.70;;;53.50;;
64242;SDS011;50573;51.512;5.386;2023-02-15T07:10:14;113.63;;;53.58;;
64242;SDS011;50573;51.512;5.386;2023-02-15T07:20:20;110.55;;;51.28;;
64242;SDS011;50573;51.512;5.386;2023-02-15T07:30:25;116.53;;;52.63;;
64242;SDS011;50573;51.512;5.386;2023-02-15T07:40:30;108.93;;;49.03;;
64242;SDS011;50573;51.512;5.386;2023-02-15T08:00:38;94.55;;;47.00;;
64242;SDS011;50573;51.512;5.386;2023-02-15T08:10:57;91.20;;;47.67;;
64242;SDS011;50573;51.512;5.386;2023-02-15T08:21:20;82.35;;;44.15;;
64242;SDS011;50573;51.512;5.386;2023-02-15T08:31:25;84.28;;;44.28;;
64242;SDS011;50573;51.512;5.386;2023-02-15T08:41:32;84.18;;;43.55;;
64242;SDS011;50573;51.512;5.386;2023-02-15T08:51:37;78.68;;;40.63;;
64242;SDS011;50573;51.512;5.386;2023-02-15T09:01:42;73.07;;;38.20;;
64242;SDS011;50573;51.512;5.386;2023-02-15T09:11:47;72.57;;;35.45;;
64242;SDS011;50573;51.512;5.386;2023-02-15T09:22:00;62.70;;;35.53;;
64242;SDS011;50573;51.512;5.386;2023-02-15T09:32:03;64.57;;;33.83;;
64242;SDS011;50573;51.512;5.386;2023-02-15T09:52:47;61.22;;;33.85;;
64242;SDS011;50573;51.512;5.386;2023-02-15T10:03:16;57.20;;;32.17;;
64242;SDS011;50573;51.512;5.386;2023-02-15T10:13:31;61.92;;;33.50;;
64242;SDS011;50573;51.512;5.386;2023-02-15T10:23:52;56.90;;;32.45;;
64242;SDS011;50573;51.512;5.386;2023-02-15T10:34:12;55.33;;;30.02;;
64242;SDS011;50573;51.512;5.386;2023-02-15T10:44:24;57.55;;;32.30;;
64242;SDS011;50573;51.512;5.386;2023-02-15T10:54:41;50.33;;;29.67;;
64242;SDS011;50573;51.512;5.386;2023-02-15T11:04:54;51.35;;;29.60;;
64242;SDS011;50573;51.512;5.386;2023-02-15T11:15:10;50.63;;;28.10;;
64242;SDS011;50573;51.512;5.386;2023-02-15T11:25:23;52.80;;;29.65;;
64242;SDS011;50573;51.512;5.386;2023-02-15T11:35:28;53.53;;;30.00;;
64242;SDS011;50573;51.512;5.386;2023-02-15T11:45:38;51.40;;;29.70;;
64242;SDS011;50573;51.512;5.386;2023-02-15T11:55:44;56.55;;;29.17;;
64242;SDS011;50573;51.512;5.386;2023-02-15T12:15:56;53.70;;;30.35;;
64242;SDS011;50573;51.512;5.386;2023-02-15T12:26:03;53.35;;;28.98;;
64242;SDS011;50573;51.512;5.386;2023-02-15T12:46:20;54.45;;;30.52;;
64242;SDS011;50573;51.512;5.386;2023-02-15T12:56:25;51.08;;;29.75;;
64242;SDS011;50573;51.512;5.386;2023-02-15T13:06:32;56.90;;;30.88;;
64242;SDS011;50573;51.512;5.386;2023-02-15T13:16:37;54.53;;;29.63;;
64242;SDS011;50573;51.512;5.386;2023-02-15T13:26:43;54.35;;;29.38;;
64242;SDS011;50573;51.512;5.386;2023-02-15T13:36:49;50.45;;;28.52;;
64242;SDS011;50573;51.512;5.386;2023-02-15T13:47:02;55.75;;;30.35;;
64242;SDS011;50573;51.512;5.386;2023-02-15T13:57:26;56.30;;;29.83;;
64242;SDS011;50573;51.512;5.386;2023-02-15T14:07:49;54.10;;;29.70;;
64242;SDS011;50573;51.512;5.386;2023-02-15T14:18:05;54.95;;;31.15;;
64242;SDS011;50573;51.512;5.386;2023-02-15T14:28:18;50.95;;;29.95;;
64242;SDS011;50573;51.512;5.386;2023-02-15T14:38:37;49.75;;;28.65;;
64242;SDS011;50573;51.512;5.386;2023-02-15T14:48:49;50.75;;;29.90;;
64242;SDS011;50573;51.512;5.386;2023-02-15T14:58:58;56.42;;;31.05;;
64242;SDS011;50573;51.512;5.386;2023-02-15T15:09:14;59.58;;;30.13;;
64242;SDS011;50573;51.512;5.386;2023-02-15T15:41:13;58.35;;;30.52;;
64242;SDS011;50573;51.512;5.386;2023-02-15T15:51:20;62.25;;;31.67;;
64242;SDS011;50573;51.512;5.386;2023-02-15T16:01:35;59.28;;;31.05;;
64242;SDS011;50573;51.512;5.386;2023-02-15T16:11:43;53.95;;;29.48;;
64242;SDS011;50573;51.512;5.386;2023-02-15T16:21:48;54.55;;;30.58;;
64242;SDS011;50573;51.512;5.386;2023-02-15T16:31:57;58.05;;;30.80;;
64242;SDS011;50573;51.512;5.386;2023-02-15T16:42:03;54.95;;;30.23;;
64242;SDS011;50573;51.512;5.386;2023-02-15T16:52:06;60.05;;;30.52;;
64242;SDS011;50573;51.512;5.386;2023-02-15T17:02:16;64.47;;;30.50;;
64242;SDS011;50573;51.512;5.386;2023-02-15T17:12:45;64.55;;;31.30;;
64242;SDS011;50573;51.512;5.386;2023-02-15T17:22:50;67.90;;;34.42;;
64242;SDS011;50573;51.512;5.386;2023-02-15T17:32:54;70.07;;;35.70;;
64242;SDS011;50573;51.512;5.386;2023-02-15T17:43:01;65.47;;;34.97;;
64242;SDS011;50573;51.512;5.386;2023-02-15T17:53:07;63.97;;;32.70;;
64242;SDS011;50573;51.512;5.386;2023-02-15T18:03:12;64.70;;;33.08;;
64242;SDS011;50573;51.512;5.386;2023-02-15T18:13:33;56.03;;;31.65;;
64242;SDS011;50573;51.512;5.386;2023-02-15T18:23:38;61.35;;;34.15;;
64242;SDS011;50573;51.512;5.386;2023-02-15T18:33:42;65.80;;;33.47;;
64242;SDS011;50573;51.512;5.386;2023-02-15T18:43:50;72.05;;;35.72;;
64242;SDS011;50573;51.512;5.386;2023-02-15T18:53:54;67.63;;;34.95;;
64242;SDS011;50573;51.512;5.386;2023-02-15T19:03:59;70.22;;;36.80;;
64242;SDS011;50573;51.512;5.386;2023-02-15T19:14:02;67.70;;;37.20;;
64242;SDS011;50573;51.512;5.386;2023-02-15T19:24:08;71.30;;;36.97;;
64242;SDS011;50573;51.512;5.386;2023-02-15T19:34:17;76.82;;;36.95;;
64242;SDS011;50573;51.512;5.386;2023-02-15T19:44:22;70.75;;;37.75;;
64242;SDS011;50573;51.512;5.386;2023-02-15T19:54:27;76.68;;;39.80;;
64242;SDS011;50573;51.512;5.386;2023-02-15T20:04:33;74.38;;;39.33;;
64242;SDS011;50573;51.512;5.386;2023-02-15T20:14:36;76.47;;;39.40;;
64242;SDS011;50573;51.512;5.386;2023-02-15T20:24:44;79.47;;;41.60;;
64242;SDS011;50573;51.512;5.386;2023-02-15T20:34:47;86.90;;;44.75;;
64242;SDS011;50573;51.512;5.386;2023-02-15T20:44:51;81.35;;;43.22;;
64242;SDS011;50573;51.512;5.386;2023-02-15T20:54:54;85.77;;;45.07;;
64242;SDS011;50573;51.512;5.386;2023-02-15T21:04:59;85.18;;;44.47;;
64242;SDS011;50573;51.512;5.386;2023-02-15T21:15:06;83.75;;;46.42;;
64242;SDS011;50573;51.512;5.386;2023-02-15T21:25:29;77.23;;;44.77;;
64242;SDS011;50573;51.512;5.386;2023-02-15T21:35:35;82.55;;;46.38;;
64242;SDS011;50573;51.512;5.386;2023-02-15T21:45:40;78.00;;;43.78;;
64242;SDS011;50573;51.512;5.386;2023-02-15T21:56:01;83.07;;;45.75;;
64242;SDS011;50573;51.512;5.386;2023-02-15T22:06:09;81.68;;;47.40;;
64242;SDS011;50573;51.512;5.386;2023-02-15T22:16:14;79.78;;;46.70;;
64242;SDS011;50573;51.512;5.386;2023-02-15T22:26:21;87.93;;;47.60;;
64242;SDS011;50573;51.512;5.386;2023-02-15T22:36:27;83.97;;;47.88;;
64242;SDS011;50573;51.512;5.386;2023-02-15T22:46:33;86.05;;;47.92;;
64242;SDS011;50573;51.512;5.386;2023-02-15T22:56:37;85.13;;;46.78;;
64242;SDS011;50573;51.512;5.386;2023-02-15T23:06:44;84.32;;;46.47;;
64242;SDS011;50573;51.512;5.386;2023-02-15T23:16:47;86.07;;;46.87;;
64242;SDS011;50573;51.512;5.386;2023-02-15T23:26:52;89.38;;;48.28;;
64242;SDS011;50573;51.512;5.386;2023-02-15T23:47:00;85.53;;;48.63;;
64242;SDS011;50573;51.512;5.386;2023-02-15T23:57:03;84.38;;;48.25;;
